• Join FlightAware (Why Join?)
  • Login
  • US Flag 
09:33PM EDT


 

Airport Tracker/Info


-or-


 

Live Flight TrackerFlight Track Log ✈ N924AK ✈ 27-Apr-2013 ✈ KIAD - KISP

Flight Track Log - Related Links

Times and Time Zones

All times are in EDT time to prevent confusion due to time zone crossing. See the N924AK flight status page for this flight to view local times or setup timezone preferences in your user account.

Time Position Orientation Groundspeed Altitude Reporting Facility
EDT Latitude Longitude Course Direction KTS MPH feet Rate Location/Type
10:35PM 39.0000 -77.5667 322° Northwest 238 274 5,600  Level Potomac TRACON
10:36PM 39.0667 -77.5667 360° North 254 292 8,700 1,680 Climbing Potomac TRACON
10:37PM 39.1333 -77.5333 21° North 291 335 9,000 120 Climbing Potomac TRACON
10:38PM 39.1667 -77.4500 63° Northeast 279 321 9,000  Level Potomac TRACON
10:39PM 39.2000 -77.3500 67° East 286 329 9,000 660 Level Potomac TRACON
10:41PM 39.2844 -77.1628 60° Northeast 295 339 11,100 1,260 Climbing Washington Center
10:42PM 39.3172 -77.0428 71° East 320 368 12,900 1,860 Climbing Washington Center
10:43PM 39.2981 -76.9111 101° East 337 388 14,900 1,860 Climbing Washington Center
10:44PM 39.2597 -76.7817 111° Southeast 357 411 16,600 1,080 Climbing Washington Center
10:45PM 39.2172 -76.6497 113° Southeast 374 430 17,100 180 Climbing Washington Center
10:46PM 39.1767 -76.5153 111° Southeast 387 445 17,000  Descending Washington Center
10:47PM 39.1358 -76.3836 112° Southeast 399 459 17,100  Climbing Washington Center
10:48PM 39.0908 -76.2389 112° Southeast 399 459 17,000 -60 Descending Washington Center
10:49PM 39.0603 -76.1156 108° East 394 453 17,000  Level Washington Center
10:50PM 39.0483 -75.9739 96° East 394 453 17,000  Level Washington Center
10:51PM 39.0547 -75.8294 87° East 394 453 17,000  Level Washington Center
10:52PM 39.0614 -75.6853 87° East 394 453 17,000  Level Washington Center
10:53PM 39.0656 -75.5381 88° East 400 460 17,000  Level Washington Center
10:54PM 39.0736 -75.3964 86° East 400 460 17,000  Level Washington Center
10:55PM 39.0817 -75.2575 86° East 400 460 17,000  Level Washington Center
10:56PM 39.1167 -75.1261 71° East 400 460 17,000  Level Washington Center
10:57PM 39.1703 -75.0025 61° Northeast 387 445 17,000  Level Washington Center
10:58PM 39.2217 -74.8817 61° Northeast 387 445 17,000  Level Washington Center
10:59PM 39.2750 -74.7550 61° Northeast 392 451 17,000  Level Washington Center
11:00PM 39.3242 -74.6311 63° Northeast 387 445 17,000  Level Washington Center
11:01PM 39.3731 -74.5097 62° Northeast 387 445 17,000  Level Washington Center
11:04PM 39.4942 -74.2169 62° Northeast 381 438 17,000  Level New York Center
11:05PM 39.5453 -74.1092 58° Northeast 381 438 17,000  Level New York Center
11:06PM 39.6217 -73.9889 50° Northeast 388 447 17,000  Level New York Center
11:07PM 39.6911 -73.8839 49° Northeast 388 447 17,000  Level New York Center
11:08PM 39.7667 -73.7847 45° Northeast 388 447 17,000 -300 Level New York Center
11:10PM 39.9294 -73.5736 45° Northeast 376 433 16,100 -780 Descending Boston Center
11:11PM 39.9969 -73.4908 43° Northeast 368 423 14,700 -1,500 Descending Boston Center
11:12PM 40.0686 -73.3917 47° Northeast 368 423 13,200 -1,440 Descending Boston Center
11:13PM 40.1422 -73.3006 43° Northeast 362 417 11,900 -1,440 Descending Boston Center
11:14PM 40.2097 -73.2144 44° Northeast 349 402 10,400 -1,260 Descending Boston Center
11:15PM 40.2686 -73.1389 44° Northeast 317 365 9,400 -720 Descending Boston Center
11:16PM 40.3231 -73.0633 47° Northeast 296 341 9,000 -600 Descending Boston Center
11:17PM 40.4167 -72.9667 38° Northeast 253 291 8,000 -780 Descending New York TRACON
11:18PM 40.4833 -72.9500 11° North 251 289 7,000 -1,200 Descending New York TRACON
11:19PM 40.5500 -72.9667 349° North 239 275 5,600 -1,500 Descending New York TRACON
11:20PM 40.6167 -73.0000 339° North 248 285 4,100 -1,200 Descending New York TRACON
11:21PM 40.6833 -73.0167 349° North 241 277 3,300 -1,020 Descending New York TRACON
11:22PM 40.7500 -73.0000 11° North 228 262 2,000 -840 Descending New York TRACON
11:23PM 40.8167 -73.0000 360° North 163 188 1,600 -300 Descending New York TRACON
11:24PM 40.8333 -73.0333 303° West 145 167 1,500 -360 Descending New York TRACON
11:25PM 40.8333 -73.0667 270° West 117 135 900 -600 Descending New York TRACON
11:27PM 40.7952 -73.1002 237° Southwest  Level Estimated
11:34PM 40.7952 -73.1002 237° Southwest  Level Estimated
11:35PM 40.7952 -73.1002 237° Southwest  Level Estimated
11:36PM 40.7952 -73.1002 237° Southwest  Level Estimated